Croydon, Utah
Current Conditions -  °F | °C
As of 10:58 AM on Friday 31 Oct 2014 (Local Time) from KHIF Reporting Station
Few Clouds Few Clouds  
Wind Chill: 65°   Ceiling: Unl
Heat Index: 65°   Visibility: 10mi
Dew Point: 24°   Wind: 16mph
Humidity: 21%   Direction: 180°S
Pressure: 30.01"   Gusts: NA
Location:  41.07°N, 111.51°W
Report Text: KHIF 311658Z 18014KT 10SM FEW190 18/M04 A3001 RMK AO2A SLP122 T01811045
Loading
Personal Weather Stations






























Interactive Weather Map
Tropical Storm Tracking
New forecast layout! Learn more

10-Day Weather Forecast

Advertisements
Track Severe Weather on mobile